sensor_id;sensor_type;location;lat;lon;timestamp;P1;durP1;ratioP1;P2;durP2;ratioP2
75926;SDS011;64605;48.296;16.416;2023-06-05T00:01:35;13.02;;;11.82;;
75926;SDS011;64605;48.296;16.416;2023-06-05T00:04:01;14.25;;;12.63;;
75926;SDS011;64605;48.296;16.416;2023-06-05T00:06:28;14.75;;;13.23;;
75926;SDS011;64605;48.296;16.416;2023-06-05T00:08:54;14.45;;;12.35;;
75926;SDS011;64605;48.296;16.416;2023-06-05T00:11:19;14.13;;;12.63;;
75926;SDS011;64605;48.296;16.416;2023-06-05T00:13:45;15.10;;;12.63;;
75926;SDS011;64605;48.296;16.416;2023-06-05T00:16:11;15.98;;;12.73;;
75926;SDS011;64605;48.296;16.416;2023-06-05T00:18:36;14.50;;;12.73;;
75926;SDS011;64605;48.296;16.416;2023-06-05T00:21:02;14.05;;;12.55;;
75926;SDS011;64605;48.296;16.416;2023-06-05T00:23:29;18.48;;;14.02;;
75926;SDS011;64605;48.296;16.416;2023-06-05T00:25:54;12.85;;;11.50;;
75926;SDS011;64605;48.296;16.416;2023-06-05T00:28:20;16.17;;;13.57;;
75926;SDS011;64605;48.296;16.416;2023-06-05T00:30:46;14.98;;;13.43;;
75926;SDS011;64605;48.296;16.416;2023-06-05T00:33:11;14.77;;;12.25;;
75926;SDS011;64605;48.296;16.416;2023-06-05T00:35:38;15.90;;;12.57;;
75926;SDS011;64605;48.296;16.416;2023-06-05T00:38:04;16.00;;;13.00;;
75926;SDS011;64605;48.296;16.416;2023-06-05T00:40:31;18.67;;;14.77;;
75926;SDS011;64605;48.296;16.416;2023-06-05T00:42:57;15.13;;;13.52;;
75926;SDS011;64605;48.296;16.416;2023-06-05T00:45:23;15.35;;;13.80;;
75926;SDS011;64605;48.296;16.416;2023-06-05T00:47:49;18.02;;;14.82;;
75926;SDS011;64605;48.296;16.416;2023-06-05T00:50:15;16.95;;;15.25;;
75926;SDS011;64605;48.296;16.416;2023-06-05T00:52:42;17.75;;;15.73;;
75926;SDS011;64605;48.296;16.416;2023-06-05T00:55:09;17.55;;;15.75;;
75926;SDS011;64605;48.296;16.416;2023-06-05T00:57:36;18.45;;;16.50;;
75926;SDS011;64605;48.296;16.416;2023-06-05T01:00:06;18.05;;;15.65;;
75926;SDS011;64605;48.296;16.416;2023-06-05T01:02:34;18.77;;;16.27;;
75926;SDS011;64605;48.296;16.416;2023-06-05T01:05:02;18.17;;;16.27;;
75926;SDS011;64605;48.296;16.416;2023-06-05T01:07:28;19.25;;;17.27;;
75926;SDS011;64605;48.296;16.416;2023-06-05T01:09:59;21.08;;;17.17;;
75926;SDS011;64605;48.296;16.416;2023-06-05T01:12:28;19.75;;;16.95;;
75926;SDS011;64605;48.296;16.416;2023-06-05T01:14:58;18.70;;;16.58;;
75926;SDS011;64605;48.296;16.416;2023-06-05T01:17:27;18.80;;;16.92;;
75926;SDS011;64605;48.296;16.416;2023-06-05T01:19:54;18.55;;;16.58;;
75926;SDS011;64605;48.296;16.416;2023-06-05T01:22:20;18.40;;;16.60;;
75926;SDS011;64605;48.296;16.416;2023-06-05T01:24:45;19.42;;;16.83;;
75926;SDS011;64605;48.296;16.416;2023-06-05T01:27:16;18.48;;;16.60;;
75926;SDS011;64605;48.296;16.416;2023-06-05T01:29:52;17.45;;;15.75;;
75926;SDS011;64605;48.296;16.416;2023-06-05T01:35:19;18.67;;;16.65;;
75926;SDS011;64605;48.296;16.416;2023-06-05T01:37:52;16.73;;;14.93;;
75926;SDS011;64605;48.296;16.416;2023-06-05T01:40:20;18.50;;;16.50;;
75926;SDS011;64605;48.296;16.416;2023-06-05T01:42:48;17.67;;;15.32;;
75926;SDS011;64605;48.296;16.416;2023-06-05T01:45:16;18.95;;;16.58;;
75926;SDS011;64605;48.296;16.416;2023-06-05T01:47:43;19.75;;;16.45;;
75926;SDS011;64605;48.296;16.416;2023-06-05T01:50:10;20.35;;;17.10;;
75926;SDS011;64605;48.296;16.416;2023-06-05T01:52:39;19.17;;;17.27;;
75926;SDS011;64605;48.296;16.416;2023-06-05T01:55:09;19.83;;;17.75;;
75926;SDS011;64605;48.296;16.416;2023-06-05T01:57:40;18.77;;;16.85;;
75926;SDS011;64605;48.296;16.416;2023-06-05T02:00:07;21.25;;;19.05;;
75926;SDS011;64605;48.296;16.416;2023-06-05T02:02:41;19.45;;;17.45;;
75926;SDS011;64605;48.296;16.416;2023-06-05T02:05:08;22.67;;;19.13;;
75926;SDS011;64605;48.296;16.416;2023-06-05T02:07:36;18.85;;;17.05;;
75926;SDS011;64605;48.296;16.416;2023-06-05T02:10:04;18.58;;;16.67;;
75926;SDS011;64605;48.296;16.416;2023-06-05T02:12:31;20.02;;;17.95;;
75926;SDS011;64605;48.296;16.416;2023-06-05T02:14:58;20.77;;;18.73;;
75926;SDS011;64605;48.296;16.416;2023-06-05T02:17:24;22.23;;;17.95;;
75926;SDS011;64605;48.296;16.416;2023-06-05T02:19:50;20.42;;;18.30;;
75926;SDS011;64605;48.296;16.416;2023-06-05T02:22:16;23.83;;;18.92;;
75926;SDS011;64605;48.296;16.416;2023-06-05T02:24:42;20.98;;;18.98;;
75926;SDS011;64605;48.296;16.416;2023-06-05T02:27:08;24.45;;;19.92;;
75926;SDS011;64605;48.296;16.416;2023-06-05T02:29:36;21.77;;;18.95;;
75926;SDS011;64605;48.296;16.416;2023-06-05T02:32:02;21.70;;;19.45;;
75926;SDS011;64605;48.296;16.416;2023-06-05T02:34:28;21.75;;;19.27;;
75926;SDS011;64605;48.296;16.416;2023-06-05T02:36:54;21.77;;;19.42;;
75926;SDS011;64605;48.296;16.416;2023-06-05T02:39:20;20.42;;;18.40;;
75926;SDS011;64605;48.296;16.416;2023-06-05T02:41:46;22.67;;;20.13;;
75926;SDS011;64605;48.296;16.416;2023-06-05T02:44:12;22.85;;;20.02;;
75926;SDS011;64605;48.296;16.416;2023-06-05T02:46:37;23.60;;;19.55;;
75926;SDS011;64605;48.296;16.416;2023-06-05T02:49:03;21.83;;;19.17;;
75926;SDS011;64605;48.296;16.416;2023-06-05T02:51:29;20.05;;;18.05;;
75926;SDS011;64605;48.296;16.416;2023-06-05T02:53:55;19.85;;;17.75;;
75926;SDS011;64605;48.296;16.416;2023-06-05T02:56:22;21.63;;;19.52;;
75926;SDS011;64605;48.296;16.416;2023-06-05T02:58:52;21.23;;;19.05;;
75926;SDS011;64605;48.296;16.416;2023-06-05T03:01:18;21.30;;;19.10;;
75926;SDS011;64605;48.296;16.416;2023-06-05T03:03:46;20.80;;;18.60;;
75926;SDS011;64605;48.296;16.416;2023-06-05T03:06:13;21.40;;;19.00;;
75926;SDS011;64605;48.296;16.416;2023-06-05T03:08:42;21.45;;;19.30;;
75926;SDS011;64605;48.296;16.416;2023-06-05T03:11:08;22.92;;;19.90;;
75926;SDS011;64605;48.296;16.416;2023-06-05T03:13:34;21.77;;;19.63;;
75926;SDS011;64605;48.296;16.416;2023-06-05T03:15:59;21.42;;;19.13;;
75926;SDS011;64605;48.296;16.416;2023-06-05T03:18:26;20.63;;;18.33;;
75926;SDS011;64605;48.296;16.416;2023-06-05T03:20:53;20.52;;;18.20;;
75926;SDS011;64605;48.296;16.416;2023-06-05T03:23:22;22.27;;;17.55;;
75926;SDS011;64605;48.296;16.416;2023-06-05T03:25:55;20.17;;;18.08;;
75926;SDS011;64605;48.296;16.416;2023-06-05T03:28:22;19.75;;;17.58;;
75926;SDS011;64605;48.296;16.416;2023-06-05T03:30:48;19.08;;;16.90;;
75926;SDS011;64605;48.296;16.416;2023-06-05T03:33:14;20.38;;;17.42;;
75926;SDS011;64605;48.296;16.416;2023-06-05T03:35:42;18.77;;;16.73;;
75926;SDS011;64605;48.296;16.416;2023-06-05T03:38:11;18.55;;;16.40;;
75926;SDS011;64605;48.296;16.416;2023-06-05T03:40:36;19.13;;;15.50;;
75926;SDS011;64605;48.296;16.416;2023-06-05T03:43:04;20.17;;;15.23;;
75926;SDS011;64605;48.296;16.416;2023-06-05T03:45:31;16.10;;;13.65;;
75926;SDS011;64605;48.296;16.416;2023-06-05T03:47:57;15.90;;;13.48;;
75926;SDS011;64605;48.296;16.416;2023-06-05T03:50:25;15.73;;;14.10;;
75926;SDS011;64605;48.296;16.416;2023-06-05T03:52:53;15.90;;;13.70;;
75926;SDS011;64605;48.296;16.416;2023-06-05T03:55:27;16.05;;;12.55;;
75926;SDS011;64605;48.296;16.416;2023-06-05T03:58:11;16.65;;;13.30;;
75926;SDS011;64605;48.296;16.416;2023-06-05T04:00:39;16.67;;;12.13;;
75926;SDS011;64605;48.296;16.416;2023-06-05T04:03:06;13.70;;;11.43;;
75926;SDS011;64605;48.296;16.416;2023-06-05T04:05:34;14.65;;;12.45;;
75926;SDS011;64605;48.296;16.416;2023-06-05T04:08:03;15.55;;;11.63;;
75926;SDS011;64605;48.296;16.416;2023-06-05T04:10:29;18.77;;;11.32;;
75926;SDS011;64605;48.296;16.416;2023-06-05T04:12:55;15.18;;;11.77;;
75926;SDS011;64605;48.296;16.416;2023-06-05T04:15:24;13.80;;;12.10;;
75926;SDS011;64605;48.296;16.416;2023-06-05T04:17:50;16.65;;;11.52;;
75926;SDS011;64605;48.296;16.416;2023-06-05T04:20:17;14.95;;;11.52;;
75926;SDS011;64605;48.296;16.416;2023-06-05T04:22:43;13.52;;;12.13;;
75926;SDS011;64605;48.296;16.416;2023-06-05T04:25:10;15.45;;;12.95;;
75926;SDS011;64605;48.296;16.416;2023-06-05T04:27:40;16.02;;;14.43;;
75926;SDS011;64605;48.296;16.416;2023-06-05T04:30:09;26.17;;;14.82;;
75926;SDS011;64605;48.296;16.416;2023-06-05T04:32:35;19.38;;;14.85;;
75926;SDS011;64605;48.296;16.416;2023-06-05T04:35:02;16.92;;;14.60;;
75926;SDS011;64605;48.296;16.416;2023-06-05T04:37:28;19.10;;;14.68;;
75926;SDS011;64605;48.296;16.416;2023-06-05T04:39:54;15.40;;;13.82;;
75926;SDS011;64605;48.296;16.416;2023-06-05T04:42:20;16.45;;;14.15;;
75926;SDS011;64605;48.296;16.416;2023-06-05T04:44:59;18.65;;;12.68;;
75926;SDS011;64605;48.296;16.416;2023-06-05T04:47:26;14.48;;;12.80;;
75926;SDS011;64605;48.296;16.416;2023-06-05T04:49:53;17.33;;;12.73;;
75926;SDS011;64605;48.296;16.416;2023-06-05T04:52:20;19.77;;;13.23;;
75926;SDS011;64605;48.296;16.416;2023-06-05T04:54:48;23.13;;;12.80;;
75926;SDS011;64605;48.296;16.416;2023-06-05T04:57:14;19.67;;;12.85;;
75926;SDS011;64605;48.296;16.416;2023-06-05T04:59:44;22.75;;;13.60;;
75926;SDS011;64605;48.296;16.416;2023-06-05T05:02:10;16.98;;;11.98;;
75926;SDS011;64605;48.296;16.416;2023-06-05T05:04:36;21.10;;;12.93;;
75926;SDS011;64605;48.296;16.416;2023-06-05T05:07:02;21.45;;;12.75;;
75926;SDS011;64605;48.296;16.416;2023-06-05T05:09:28;23.35;;;12.05;;
75926;SDS011;64605;48.296;16.416;2023-06-05T05:11:54;19.48;;;11.80;;
75926;SDS011;64605;48.296;16.416;2023-06-05T05:14:20;17.83;;;12.50;;
75926;SDS011;64605;48.296;16.416;2023-06-05T05:16:45;14.63;;;10.68;;
75926;SDS011;64605;48.296;16.416;2023-06-05T05:19:11;15.02;;;10.82;;
75926;SDS011;64605;48.296;16.416;2023-06-05T05:21:37;17.52;;;11.05;;
75926;SDS011;64605;48.296;16.416;2023-06-05T05:24:02;16.83;;;11.65;;
75926;SDS011;64605;48.296;16.416;2023-06-05T05:26:29;15.40;;;10.02;;
75926;SDS011;64605;48.296;16.416;2023-06-05T05:28:55;14.35;;;9.80;;
75926;SDS011;64605;48.296;16.416;2023-06-05T05:31:21;15.82;;;10.05;;
75926;SDS011;64605;48.296;16.416;2023-06-05T05:33:48;13.55;;;9.40;;
75926;SDS011;64605;48.296;16.416;2023-06-05T05:36:13;20.88;;;10.45;;
75926;SDS011;64605;48.296;16.416;2023-06-05T05:38:40;15.60;;;10.07;;
75926;SDS011;64605;48.296;16.416;2023-06-05T05:41:05;17.95;;;9.52;;
75926;SDS011;64605;48.296;16.416;2023-06-05T05:43:31;13.45;;;9.98;;
75926;SDS011;64605;48.296;16.416;2023-06-05T05:45:58;12.77;;;8.50;;
75926;SDS011;64605;48.296;16.416;2023-06-05T05:48:23;14.90;;;8.10;;
75926;SDS011;64605;48.296;16.416;2023-06-05T05:50:49;12.10;;;8.95;;
75926;SDS011;64605;48.296;16.416;2023-06-05T05:53:15;15.93;;;9.27;;
75926;SDS011;64605;48.296;16.416;2023-06-05T05:55:40;14.95;;;8.82;;
75926;SDS011;64605;48.296;16.416;2023-06-05T05:58:06;11.10;;;8.88;;
75926;SDS011;64605;48.296;16.416;2023-06-05T06:00:32;13.02;;;8.45;;
75926;SDS011;64605;48.296;16.416;2023-06-05T06:02:59;13.52;;;8.15;;
75926;SDS011;64605;48.296;16.416;2023-06-05T06:05:25;12.88;;;8.10;;
75926;SDS011;64605;48.296;16.416;2023-06-05T06:07:51;10.30;;;8.32;;
75926;SDS011;64605;48.296;16.416;2023-06-05T06:10:17;11.38;;;8.80;;
75926;SDS011;64605;48.296;16.416;2023-06-05T06:12:43;14.07;;;7.97;;
75926;SDS011;64605;48.296;16.416;2023-06-05T06:15:10;10.70;;;8.93;;
75926;SDS011;64605;48.296;16.416;2023-06-05T06:17:36;10.15;;;7.75;;
75926;SDS011;64605;48.296;16.416;2023-06-05T06:20:03;11.77;;;8.18;;
75926;SDS011;64605;48.296;16.416;2023-06-05T06:22:31;9.13;;;8.15;;
75926;SDS011;64605;48.296;16.416;2023-06-05T06:24:56;14.27;;;7.78;;
75926;SDS011;64605;48.296;16.416;2023-06-05T06:27:22;9.60;;;7.88;;
75926;SDS011;64605;48.296;16.416;2023-06-05T06:29:50;10.60;;;7.45;;
75926;SDS011;64605;48.296;16.416;2023-06-05T06:32:19;13.07;;;7.85;;
75926;SDS011;64605;48.296;16.416;2023-06-05T06:34:45;9.55;;;7.07;;
75926;SDS011;64605;48.296;16.416;2023-06-05T06:37:14;10.00;;;7.70;;
75926;SDS011;64605;48.296;16.416;2023-06-05T06:39:41;12.82;;;7.82;;
75926;SDS011;64605;48.296;16.416;2023-06-05T06:42:08;12.57;;;7.82;;
75926;SDS011;64605;48.296;16.416;2023-06-05T06:44:35;15.73;;;8.45;;
75926;SDS011;64605;48.296;16.416;2023-06-05T06:47:04;13.57;;;7.40;;
75926;SDS011;64605;48.296;16.416;2023-06-05T06:49:30;10.60;;;7.90;;
75926;SDS011;64605;48.296;16.416;2023-06-05T06:51:56;12.57;;;8.57;;
75926;SDS011;64605;48.296;16.416;2023-06-05T06:54:21;12.35;;;7.60;;
75926;SDS011;64605;48.296;16.416;2023-06-05T06:56:48;12.05;;;7.72;;
75926;SDS011;64605;48.296;16.416;2023-06-05T06:59:16;9.02;;;8.13;;
75926;SDS011;64605;48.296;16.416;2023-06-05T07:01:43;9.02;;;7.50;;
75926;SDS011;64605;48.296;16.416;2023-06-05T07:04:13;9.07;;;8.13;;
75926;SDS011;64605;48.296;16.416;2023-06-05T07:06:45;12.50;;;8.45;;
75926;SDS011;64605;48.296;16.416;2023-06-05T07:09:11;11.05;;;8.30;;
75926;SDS011;64605;48.296;16.416;2023-06-05T07:11:37;9.27;;;7.55;;
75926;SDS011;64605;48.296;16.416;2023-06-05T07:14:03;13.50;;;8.07;;
75926;SDS011;64605;48.296;16.416;2023-06-05T07:16:28;9.23;;;8.00;;
75926;SDS011;64605;48.296;16.416;2023-06-05T07:18:54;9.52;;;7.78;;
75926;SDS011;64605;48.296;16.416;2023-06-05T07:21:21;9.55;;;7.78;;
75926;SDS011;64605;48.296;16.416;2023-06-05T07:23:50;11.82;;;8.02;;
75926;SDS011;64605;48.296;16.416;2023-06-05T07:26:19;11.02;;;7.72;;
75926;SDS011;64605;48.296;16.416;2023-06-05T07:28:46;13.90;;;8.35;;
75926;SDS011;64605;48.296;16.416;2023-06-05T07:31:13;11.05;;;7.88;;
75926;SDS011;64605;48.296;16.416;2023-06-05T07:33:39;9.73;;;8.02;;
75926;SDS011;64605;48.296;16.416;2023-06-05T07:36:06;9.07;;;7.22;;
75926;SDS011;64605;48.296;16.416;2023-06-05T07:38:32;9.85;;;7.22;;
75926;SDS011;64605;48.296;16.416;2023-06-05T07:40:58;8.60;;;7.78;;
75926;SDS011;64605;48.296;16.416;2023-06-05T07:43:26;9.25;;;6.38;;
75926;SDS011;64605;48.296;16.416;2023-06-05T07:45:52;10.73;;;6.75;;
75926;SDS011;64605;48.296;16.416;2023-06-05T07:48:18;12.55;;;7.13;;
75926;SDS011;64605;48.296;16.416;2023-06-05T07:50:44;11.75;;;7.25;;
75926;SDS011;64605;48.296;16.416;2023-06-05T07:53:10;9.57;;;7.72;;
75926;SDS011;64605;48.296;16.416;2023-06-05T07:55:36;10.35;;;7.68;;
75926;SDS011;64605;48.296;16.416;2023-06-05T07:58:02;10.93;;;7.82;;
75926;SDS011;64605;48.296;16.416;2023-06-05T08:00:27;9.23;;;7.18;;
75926;SDS011;64605;48.296;16.416;2023-06-05T08:02:53;13.02;;;7.63;;
75926;SDS011;64605;48.296;16.416;2023-06-05T08:05:19;10.88;;;7.80;;
75926;SDS011;64605;48.296;16.416;2023-06-05T08:07:45;9.85;;;6.45;;
75926;SDS011;64605;48.296;16.416;2023-06-05T08:10:12;12.45;;;7.65;;
75926;SDS011;64605;48.296;16.416;2023-06-05T08:12:38;11.00;;;7.13;;
75926;SDS011;64605;48.296;16.416;2023-06-05T08:15:04;8.02;;;6.97;;
75926;SDS011;64605;48.296;16.416;2023-06-05T08:17:31;10.95;;;6.50;;
75926;SDS011;64605;48.296;16.416;2023-06-05T08:19:56;7.93;;;7.15;;
75926;SDS011;64605;48.296;16.416;2023-06-05T08:22:22;11.20;;;7.20;;
75926;SDS011;64605;48.296;16.416;2023-06-05T08:24:48;9.07;;;6.75;;
75926;SDS011;64605;48.296;16.416;2023-06-05T08:27:16;10.48;;;6.50;;
75926;SDS011;64605;48.296;16.416;2023-06-05T08:29:42;11.88;;;7.20;;
75926;SDS011;64605;48.296;16.416;2023-06-05T08:32:08;10.25;;;6.90;;
75926;SDS011;64605;48.296;16.416;2023-06-05T08:34:34;9.25;;;6.72;;
75926;SDS011;64605;48.296;16.416;2023-06-05T08:37:00;11.98;;;7.03;;
75926;SDS011;64605;48.296;16.416;2023-06-05T08:39:27;7.95;;;7.10;;
75926;SDS011;64605;48.296;16.416;2023-06-05T08:41:57;10.32;;;6.80;;
75926;SDS011;64605;48.296;16.416;2023-06-05T08:44:28;12.15;;;8.15;;
75926;SDS011;64605;48.296;16.416;2023-06-05T08:47:02;8.73;;;6.82;;
75926;SDS011;64605;48.296;16.416;2023-06-05T08:49:29;10.73;;;7.57;;
75926;SDS011;64605;48.296;16.416;2023-06-05T08:51:57;11.07;;;7.00;;
75926;SDS011;64605;48.296;16.416;2023-06-05T08:54:48;9.77;;;6.55;;
75926;SDS011;64605;48.296;16.416;2023-06-05T08:57:14;8.88;;;6.78;;
75926;SDS011;64605;48.296;16.416;2023-06-05T08:59:40;9.52;;;5.97;;
75926;SDS011;64605;48.296;16.416;2023-06-05T09:02:07;9.05;;;6.22;;
75926;SDS011;64605;48.296;16.416;2023-06-05T09:04:36;8.75;;;5.72;;
75926;SDS011;64605;48.296;16.416;2023-06-05T09:07:04;9.52;;;5.80;;
75926;SDS011;64605;48.296;16.416;2023-06-05T09:09:32;8.13;;;6.95;;
75926;SDS011;64605;48.296;16.416;2023-06-05T09:12:02;7.18;;;6.30;;
75926;SDS011;64605;48.296;16.416;2023-06-05T09:14:28;9.55;;;6.93;;
75926;SDS011;64605;48.296;16.416;2023-06-05T09:16:56;12.05;;;6.43;;
75926;SDS011;64605;48.296;16.416;2023-06-05T09:19:21;9.80;;;7.20;;
75926;SDS011;64605;48.296;16.416;2023-06-05T09:21:52;15.85;;;7.30;;
75926;SDS011;64605;48.296;16.416;2023-06-05T09:24:19;8.35;;;6.10;;
75926;SDS011;64605;48.296;16.416;2023-06-05T09:31:51;9.23;;;6.78;;
75926;SDS011;64605;48.296;16.416;2023-06-05T09:34:29;14.98;;;7.30;;
75926;SDS011;64605;48.296;16.416;2023-06-05T09:36:55;10.60;;;7.15;;
75926;SDS011;64605;48.296;16.416;2023-06-05T09:39:22;10.63;;;6.75;;
75926;SDS011;64605;48.296;16.416;2023-06-05T09:41:50;8.23;;;7.43;;
75926;SDS011;64605;48.296;16.416;2023-06-05T09:44:17;11.70;;;6.80;;
75926;SDS011;64605;48.296;16.416;2023-06-05T09:49:29;9.48;;;6.07;;
75926;SDS011;64605;48.296;16.416;2023-06-05T09:52:04;9.15;;;6.10;;
75926;SDS011;64605;48.296;16.416;2023-06-05T09:54:31;7.60;;;6.80;;
75926;SDS011;64605;48.296;16.416;2023-06-05T09:56:57;7.68;;;6.88;;
75926;SDS011;64605;48.296;16.416;2023-06-05T09:59:26;9.73;;;5.43;;
75926;SDS011;64605;48.296;16.416;2023-06-05T10:02:05;9.18;;;6.07;;
75926;SDS011;64605;48.296;16.416;2023-06-05T10:04:38;9.02;;;7.53;;
75926;SDS011;64605;48.296;16.416;2023-06-05T10:07:11;10.80;;;6.05;;
75926;SDS011;64605;48.296;16.416;2023-06-05T10:09:37;6.65;;;6.03;;
75926;SDS011;64605;48.296;16.416;2023-06-05T10:12:03;10.38;;;6.80;;
75926;SDS011;64605;48.296;16.416;2023-06-05T10:14:30;9.00;;;7.00;;
75926;SDS011;64605;48.296;16.416;2023-06-05T10:16:55;9.80;;;6.43;;
75926;SDS011;64605;48.296;16.416;2023-06-05T10:19:23;10.25;;;7.68;;
75926;SDS011;64605;48.296;16.416;2023-06-05T10:21:52;9.23;;;7.20;;
75926;SDS011;64605;48.296;16.416;2023-06-05T10:35:06;12.07;;;8.90;;
75926;SDS011;64605;48.296;16.416;2023-06-05T10:38:17;12.77;;;9.02;;
75926;SDS011;64605;48.296;16.416;2023-06-05T10:40:46;8.95;;;7.97;;
75926;SDS011;64605;48.296;16.416;2023-06-05T10:43:51;13.90;;;8.55;;
75926;SDS011;64605;48.296;16.416;2023-06-05T10:49:08;11.48;;;8.73;;
75926;SDS011;64605;48.296;16.416;2023-06-05T10:51:37;10.07;;;8.93;;
75926;SDS011;64605;48.296;16.416;2023-06-05T10:54:04;14.00;;;9.02;;
75926;SDS011;64605;48.296;16.416;2023-06-05T10:59:21;10.80;;;8.48;;
75926;SDS011;64605;48.296;16.416;2023-06-05T11:05:16;12.80;;;9.88;;
75926;SDS011;64605;48.296;16.416;2023-06-05T11:07:26;12.00;;;10.02;;
75926;SDS011;64605;48.296;16.416;2023-06-05T11:17:41;15.10;;;10.02;;
75926;SDS011;64605;48.296;16.416;2023-06-05T11:20:08;12.00;;;9.00;;
75926;SDS011;64605;48.296;16.416;2023-06-05T11:27:56;15.85;;;9.00;;
75926;SDS011;64605;48.296;16.416;2023-06-05T11:30:40;11.98;;;9.80;;
75926;SDS011;64605;48.296;16.416;2023-06-05T11:35:35;13.25;;;9.82;;
75926;SDS011;64605;48.296;16.416;2023-06-05T11:40:36;10.75;;;8.27;;
75926;SDS011;64605;48.296;16.416;2023-06-05T11:43:06;10.50;;;9.45;;
75926;SDS011;64605;48.296;16.416;2023-06-05T11:45:33;11.25;;;9.20;;
75926;SDS011;64605;48.296;16.416;2023-06-05T11:48:12;11.02;;;9.02;;
75926;SDS011;64605;48.296;16.416;2023-06-05T11:53:18;9.40;;;6.45;;
75926;SDS011;64605;48.296;16.416;2023-06-05T11:55:44;15.10;;;7.43;;
75926;SDS011;64605;48.296;16.416;2023-06-05T11:58:28;33.70;;;9.15;;
75926;SDS011;64605;48.296;16.416;2023-06-05T12:01:37;12.93;;;7.78;;
75926;SDS011;64605;48.296;16.416;2023-06-05T12:03:47;7.70;;;6.45;;
75926;SDS011;64605;48.296;16.416;2023-06-05T12:06:14;10.23;;;6.57;;
75926;SDS011;64605;48.296;16.416;2023-06-05T12:08:42;6.28;;;5.68;;
75926;SDS011;64605;48.296;16.416;2023-06-05T12:11:19;9.85;;;5.65;;
75926;SDS011;64605;48.296;16.416;2023-06-05T12:13:50;9.43;;;6.05;;
75926;SDS011;64605;48.296;16.416;2023-06-05T12:16:17;9.93;;;5.80;;
75926;SDS011;64605;48.296;16.416;2023-06-05T12:18:44;6.82;;;5.78;;
75926;SDS011;64605;48.296;16.416;2023-06-05T12:21:23;14.02;;;7.63;;
75926;SDS011;64605;48.296;16.416;2023-06-05T12:23:49;16.17;;;8.25;;
75926;SDS011;64605;48.296;16.416;2023-06-05T12:26:16;15.43;;;6.30;;
75926;SDS011;64605;48.296;16.416;2023-06-05T12:28:42;9.70;;;4.85;;
75926;SDS011;64605;48.296;16.416;2023-06-05T12:31:09;10.15;;;4.95;;
75926;SDS011;64605;48.296;16.416;2023-06-05T12:33:45;6.82;;;4.95;;
75926;SDS011;64605;48.296;16.416;2023-06-05T12:36:14;6.47;;;4.57;;
75926;SDS011;64605;48.296;16.416;2023-06-05T12:38:41;14.00;;;5.63;;
75926;SDS011;64605;48.296;16.416;2023-06-05T12:41:08;9.80;;;5.28;;
75926;SDS011;64605;48.296;16.416;2023-06-05T12:43:34;6.13;;;5.32;;
75926;SDS011;64605;48.296;16.416;2023-06-05T12:46:00;9.40;;;6.75;;
75926;SDS011;64605;48.296;16.416;2023-06-05T12:48:26;10.98;;;7.10;;
75926;SDS011;64605;48.296;16.416;2023-06-05T12:50:52;9.80;;;6.80;;
75926;SDS011;64605;48.296;16.416;2023-06-05T12:53:19;7.93;;;7.15;;
75926;SDS011;64605;48.296;16.416;2023-06-05T12:55:45;14.77;;;6.65;;
75926;SDS011;64605;48.296;16.416;2023-06-05T12:58:10;12.13;;;7.50;;
75926;SDS011;64605;48.296;16.416;2023-06-05T13:00:36;11.48;;;7.20;;
75926;SDS011;64605;48.296;16.416;2023-06-05T13:03:02;42.47;;;10.48;;
75926;SDS011;64605;48.296;16.416;2023-06-05T13:05:29;27.35;;;9.25;;
75926;SDS011;64605;48.296;16.416;2023-06-05T13:07:56;18.92;;;7.55;;
75926;SDS011;64605;48.296;16.416;2023-06-05T13:10:22;10.23;;;5.90;;
75926;SDS011;64605;48.296;16.416;2023-06-05T13:12:48;15.13;;;6.20;;
75926;SDS011;64605;48.296;16.416;2023-06-05T13:15:14;10.10;;;7.03;;
75926;SDS011;64605;48.296;16.416;2023-06-05T13:17:39;21.42;;;7.30;;
75926;SDS011;64605;48.296;16.416;2023-06-05T13:20:05;11.77;;;5.60;;
75926;SDS011;64605;48.296;16.416;2023-06-05T13:22:33;12.63;;;7.57;;
75926;SDS011;64605;48.296;16.416;2023-06-05T13:24:59;10.70;;;7.28;;
75926;SDS011;64605;48.296;16.416;2023-06-05T13:27:25;11.57;;;7.68;;
75926;SDS011;64605;48.296;16.416;2023-06-05T13:29:51;17.83;;;7.70;;
75926;SDS011;64605;48.296;16.416;2023-06-05T13:32:17;20.00;;;7.38;;
75926;SDS011;64605;48.296;16.416;2023-06-05T13:34:43;8.70;;;5.78;;
75926;SDS011;64605;48.296;16.416;2023-06-05T13:37:08;8.75;;;5.22;;
75926;SDS011;64605;48.296;16.416;2023-06-05T13:39:34;8.73;;;4.88;;
75926;SDS011;64605;48.296;16.416;2023-06-05T13:41:59;10.63;;;6.20;;
75926;SDS011;64605;48.296;16.416;2023-06-05T13:44:27;8.77;;;5.95;;
75926;SDS011;64605;48.296;16.416;2023-06-05T13:46:53;9.88;;;5.45;;
75926;SDS011;64605;48.296;16.416;2023-06-05T13:49:18;7.78;;;4.85;;
75926;SDS011;64605;48.296;16.416;2023-06-05T13:51:44;10.40;;;5.80;;
75926;SDS011;64605;48.296;16.416;2023-06-05T13:54:10;11.13;;;5.72;;
75926;SDS011;64605;48.296;16.416;2023-06-05T13:56:35;12.45;;;5.72;;
75926;SDS011;64605;48.296;16.416;2023-06-05T13:59:01;8.57;;;5.65;;
75926;SDS011;64605;48.296;16.416;2023-06-05T14:01:27;9.55;;;6.32;;
75926;SDS011;64605;48.296;16.416;2023-06-05T14:03:52;12.27;;;7.13;;
75926;SDS011;64605;48.296;16.416;2023-06-05T14:06:18;10.63;;;7.80;;
75926;SDS011;64605;48.296;16.416;2023-06-05T14:08:45;8.35;;;6.88;;
75926;SDS011;64605;48.296;16.416;2023-06-05T14:11:11;30.00;;;13.85;;
75926;SDS011;64605;48.296;16.416;2023-06-05T14:13:37;25.60;;;17.27;;
75926;SDS011;64605;48.296;16.416;2023-06-05T14:16:03;27.70;;;17.75;;
75926;SDS011;64605;48.296;16.416;2023-06-05T14:18:29;22.35;;;19.23;;
75926;SDS011;64605;48.296;16.416;2023-06-05T14:20:55;20.95;;;18.88;;
75926;SDS011;64605;48.296;16.416;2023-06-05T14:23:21;26.75;;;23.60;;
75926;SDS011;64605;48.296;16.416;2023-06-05T14:25:51;17.58;;;15.43;;
75926;SDS011;64605;48.296;16.416;2023-06-05T14:28:17;19.67;;;17.45;;
75926;SDS011;64605;48.296;16.416;2023-06-05T14:30:44;17.02;;;14.88;;
75926;SDS011;64605;48.296;16.416;2023-06-05T14:33:13;16.38;;;14.52;;
75926;SDS011;64605;48.296;16.416;2023-06-05T14:35:39;17.90;;;13.40;;
75926;SDS011;64605;48.296;16.416;2023-06-05T14:38:05;16.45;;;13.63;;
75926;SDS011;64605;48.296;16.416;2023-06-05T14:40:31;14.07;;;12.63;;
75926;SDS011;64605;48.296;16.416;2023-06-05T14:42:58;13.70;;;12.25;;
75926;SDS011;64605;48.296;16.416;2023-06-05T14:45:24;14.23;;;12.38;;
75926;SDS011;64605;48.296;16.416;2023-06-05T14:47:50;14.80;;;11.65;;
75926;SDS011;64605;48.296;16.416;2023-06-05T14:50:16;17.27;;;12.35;;
75926;SDS011;64605;48.296;16.416;2023-06-05T14:52:41;13.73;;;11.30;;
75926;SDS011;64605;48.296;16.416;2023-06-05T14:55:07;12.15;;;10.95;;
75926;SDS011;64605;48.296;16.416;2023-06-05T14:57:33;11.60;;;9.63;;
75926;SDS011;64605;48.296;16.416;2023-06-05T15:00:00;10.95;;;9.77;;
75926;SDS011;64605;48.296;16.416;2023-06-05T15:02:29;12.98;;;9.60;;
75926;SDS011;64605;48.296;16.416;2023-06-05T15:04:55;11.60;;;10.55;;
75926;SDS011;64605;48.296;16.416;2023-06-05T15:07:23;12.63;;;9.82;;
75926;SDS011;64605;48.296;16.416;2023-06-05T15:09:49;17.52;;;10.38;;
75926;SDS011;64605;48.296;16.416;2023-06-05T15:12:16;13.75;;;11.00;;